createdAt,value
2018-01-10T00:02:07.095Z,71.70
2018-01-10T00:04:34.672Z,71.90
2018-01-10T00:07:02.230Z,72.00
2018-01-10T00:09:29.792Z,72.40
2018-01-10T00:11:57.370Z,72.40
2018-01-10T00:14:24.923Z,72.20
2018-01-10T00:16:52.458Z,72.40
2018-01-10T00:19:20.044Z,72.50
2018-01-10T00:21:47.601Z,73.30
2018-01-10T00:24:15.156Z,72.30
2018-01-10T00:26:42.714Z,72.20
2018-01-10T00:29:10.275Z,73.20
2018-01-10T00:31:37.825Z,72.40
2018-01-10T00:34:05.413Z,72.40
2018-01-10T00:36:32.966Z,73.20
2018-01-10T00:39:00.508Z,72.80
2018-01-10T00:41:28.095Z,72.90
2018-01-10T00:43:55.653Z,73.10
2018-01-10T00:46:23.223Z,73.50
2018-01-10T00:48:50.806Z,72.30
2018-01-10T00:51:19.120Z,72.30
2018-01-10T00:53:46.688Z,71.70
2018-01-10T00:56:14.276Z,71.60
2018-01-10T00:58:41.830Z,72.60
2018-01-10T01:01:09.385Z,73.00
2018-01-10T01:03:36.983Z,73.50
2018-01-10T01:06:05.296Z,74.30
2018-01-10T01:08:32.834Z,74.30
2018-01-10T01:11:01.181Z,74.20
2018-01-10T01:13:28.742Z,74.20
2018-01-10T01:15:56.289Z,73.40
2018-01-10T01:18:23.869Z,72.40
2018-01-10T01:20:51.425Z,72.30
2018-01-10T01:23:18.983Z,72.70
2018-01-10T01:25:46.573Z,72.60
2018-01-10T01:28:14.160Z,72.20
2018-01-10T01:30:41.719Z,72.90
2018-01-10T01:33:09.297Z,72.70
2018-01-10T01:35:36.840Z,71.80
2018-01-10T01:38:04.415Z,71.60
2018-01-10T01:40:31.985Z,71.30
2018-01-10T01:42:59.523Z,71.20
2018-01-10T01:45:27.059Z,71.20
2018-01-10T01:47:54.619Z,71.30
2018-01-10T01:50:22.168Z,71.00
2018-01-10T01:52:49.725Z,71.50
2018-01-10T01:55:18.051Z,70.80
2018-01-10T01:57:45.601Z,70.90
2018-01-10T02:00:13.147Z,69.90
2018-01-10T02:02:40.708Z,70.90
2018-01-10T02:05:08.275Z,71.70
2018-01-10T02:07:35.815Z,72.60
2018-01-10T02:10:03.403Z,71.70
2018-01-10T02:12:31.767Z,72.40
2018-01-10T02:14:59.330Z,72.40
2018-01-10T02:17:26.909Z,73.00
2018-01-10T02:19:54.457Z,72.90
2018-01-10T02:22:22.006Z,74.60
2018-01-10T02:24:49.591Z,74.90
2018-01-10T02:27:17.141Z,73.90
2018-01-10T02:29:44.686Z,74.00
2018-01-10T02:32:12.286Z,74.00
2018-01-10T02:34:39.859Z,74.30
2018-01-10T02:37:08.195Z,74.40
2018-01-10T02:39:35.760Z,74.40
2018-01-10T02:42:03.305Z,75.40
2018-01-10T02:44:30.843Z,74.70
2018-01-10T02:46:58.412Z,74.90
2018-01-10T02:49:25.978Z,76.60
2018-01-10T02:51:53.530Z,75.60
2018-01-10T02:54:21.098Z,75.70
2018-01-10T02:56:48.664Z,75.00
2018-01-10T02:59:16.232Z,75.40
2018-01-10T03:01:43.810Z,76.60
2018-01-10T03:04:11.356Z,76.10
2018-01-10T03:06:38.909Z,76.10
2018-01-10T03:09:06.486Z,76.50
2018-01-10T03:11:34.024Z,77.20
2018-01-10T03:14:01.564Z,77.30
2018-01-10T03:16:29.142Z,77.30
2018-01-10T03:18:56.679Z,77.40
2018-01-10T03:21:24.236Z,77.70
2018-01-10T03:23:51.799Z,76.70
2018-01-10T03:26:19.373Z,75.90
2018-01-10T03:28:46.943Z,76.50
2018-01-10T03:31:14.514Z,77.10
2018-01-10T03:33:42.082Z,77.40
2018-01-10T03:36:09.624Z,77.20
2018-01-10T03:38:37.204Z,76.90
2018-01-10T03:41:04.775Z,76.40
2018-01-10T03:43:32.355Z,77.10
2018-01-10T03:46:00.659Z,78.00
2018-01-10T03:48:28.222Z,78.00
2018-01-10T03:50:55.766Z,78.00
2018-01-10T03:53:23.348Z,77.20
2018-01-10T03:55:50.899Z,77.50
2018-01-10T03:58:18.489Z,78.20
2018-01-10T04:00:46.053Z,77.40
2018-01-10T04:03:13.588Z,77.50
2018-01-10T04:05:41.153Z,78.10
2018-01-10T04:08:08.720Z,78.00
2018-01-10T04:10:37.250Z,78.10
2018-01-10T04:13:05.569Z,78.20
2018-01-10T04:15:33.141Z,78.20
2018-01-10T04:18:01.645Z,78.90
2018-01-10T04:20:29.230Z,78.20
2018-01-10T04:22:57.542Z,79.70
2018-01-10T04:25:25.112Z,79.60
2018-01-10T04:27:52.700Z,79.50
2018-01-10T04:30:20.238Z,78.60
2018-01-10T04:32:47.822Z,78.40
2018-01-10T04:35:15.396Z,78.90
2018-01-10T04:37:43.718Z,79.10
2018-01-10T04:40:11.260Z,79.10
2018-01-10T04:42:38.837Z,79.00
2018-01-10T04:45:06.396Z,79.10
2018-01-10T04:47:33.959Z,78.70
2018-01-10T04:50:01.503Z,78.90
2018-01-10T04:52:29.067Z,79.10
2018-01-10T04:54:56.641Z,79.10
2018-01-10T04:57:24.197Z,79.50
2018-01-10T04:59:51.767Z,78.60
2018-01-10T05:02:19.333Z,78.70
2018-01-10T05:04:46.905Z,78.80
2018-01-10T05:07:14.479Z,79.30
2018-01-10T05:09:42.061Z,80.10
2018-01-10T05:12:10.402Z,80.30
2018-01-10T05:14:37.943Z,80.30
2018-01-10T05:17:05.513Z,81.40
2018-01-10T05:19:33.092Z,80.70
2018-01-10T05:22:00.676Z,81.60
2018-01-10T05:24:29.006Z,81.50
2018-01-10T05:26:56.581Z,81.40
2018-01-10T05:29:24.127Z,80.10
2018-01-10T05:31:51.688Z,79.80
2018-01-10T05:34:19.261Z,80.10
2018-01-10T05:36:46.822Z,80.20
2018-01-10T05:39:14.380Z,80.60
2018-01-10T05:41:43.451Z,79.80
2018-01-10T05:44:11.025Z,79.70
2018-01-10T05:46:38.571Z,80.70
2018-01-10T05:49:06.256Z,81.10
2018-01-10T05:51:33.824Z,80.10
2018-01-10T05:54:01.399Z,80.60
2018-01-10T05:56:29.748Z,80.60
2018-01-10T05:58:57.316Z,80.60
2018-01-10T06:01:24.893Z,79.70
2018-01-10T06:03:53.211Z,80.10
2018-01-10T06:06:20.768Z,80.00
2018-01-10T06:08:48.326Z,80.90
2018-01-10T06:11:15.916Z,81.40
2018-01-10T06:13:43.483Z,81.80
2018-01-10T06:16:11.041Z,80.60
2018-01-10T06:18:38.598Z,80.80
2018-01-10T06:21:06.135Z,80.30
2018-01-10T06:23:33.709Z,80.30
2018-01-10T06:26:01.269Z,80.50
2018-01-10T06:28:28.859Z,80.40
2018-01-10T06:30:57.186Z,80.50
2018-01-10T06:33:24.776Z,80.50
2018-01-10T06:35:53.505Z,81.30
2018-01-10T06:38:21.825Z,81.70
2018-01-10T06:40:49.393Z,81.20
2018-01-10T06:43:16.963Z,81.80
2018-01-10T06:45:44.523Z,81.50
2018-01-10T06:48:12.068Z,81.30
2018-01-10T06:50:39.671Z,80.30
2018-01-10T06:53:07.979Z,82.20
2018-01-10T06:55:35.572Z,82.20
2018-01-10T06:58:03.125Z,81.90
2018-01-10T07:00:30.683Z,80.50
2018-01-10T07:02:58.242Z,80.40
2018-01-10T07:05:25.839Z,80.30
2018-01-10T07:07:54.148Z,81.20
2018-01-10T07:10:21.705Z,81.20
2018-01-10T07:12:49.438Z,80.80
2018-01-10T07:15:17.789Z,80.40
2018-01-10T07:17:45.346Z,80.40
2018-01-10T07:20:12.910Z,81.00
2018-01-10T07:22:40.503Z,80.70
2018-01-10T07:25:08.815Z,81.50
2018-01-10T07:27:36.374Z,81.50
2018-01-10T07:30:03.969Z,82.60
2018-01-10T07:32:32.342Z,81.80
2018-01-10T07:34:59.888Z,81.70
2018-01-10T07:37:27.460Z,80.90
2018-01-10T07:39:55.028Z,82.40
2018-01-10T07:42:22.586Z,82.30
2018-01-10T07:44:51.072Z,83.00
2018-01-10T07:47:18.635Z,83.00
2018-01-10T07:49:46.195Z,84.50
2018-01-10T07:52:13.763Z,84.90
2018-01-10T07:54:41.328Z,82.80
2018-01-10T07:57:09.676Z,82.20
2018-01-10T07:59:37.253Z,82.20
2018-01-10T08:02:04.819Z,82.20
2018-01-10T08:04:32.370Z,81.70
2018-01-10T08:06:59.971Z,82.60
2018-01-10T08:09:27.562Z,83.70
2018-01-10T08:11:55.101Z,83.30
2018-01-10T08:14:22.664Z,82.90
2018-01-10T08:16:50.228Z,81.90
2018-01-10T08:19:17.778Z,80.80
2018-01-10T08:21:45.326Z,79.40
2018-01-10T08:24:12.913Z,78.50
2018-01-10T08:26:40.479Z,78.50
2018-01-10T08:29:08.072Z,76.20
2018-01-10T08:31:35.642Z,75.30
2018-01-10T08:34:03.979Z,74.50
2018-01-10T08:36:31.557Z,74.50
2018-01-10T08:38:59.124Z,73.80
2018-01-10T08:41:26.680Z,72.90
2018-01-10T08:43:54.243Z,71.70
2018-01-10T08:46:21.831Z,71.00
2018-01-10T08:48:50.149Z,69.30
2018-01-10T08:51:17.703Z,69.30
2018-01-10T08:53:45.272Z,69.00
2018-01-10T08:56:12.851Z,68.00
2018-01-10T08:58:40.411Z,67.40
2018-01-10T09:01:07.975Z,66.90
2018-01-10T09:03:35.549Z,66.50
2018-01-10T09:06:03.099Z,65.00
2018-01-10T09:08:30.684Z,64.30
2018-01-10T09:10:58.993Z,63.80
2018-01-10T09:13:26.579Z,63.70
2018-01-10T09:15:54.134Z,63.80
2018-01-10T09:18:21.700Z,62.20
2018-01-10T09:20:49.261Z,62.60
2018-01-10T09:23:16.817Z,62.10
2018-01-10T09:25:44.402Z,61.80
2018-01-10T09:28:12.735Z,62.00
2018-01-10T09:30:40.309Z,61.40
2018-01-10T09:33:07.879Z,61.00
2018-01-10T09:35:35.443Z,58.70
2018-01-10T09:38:02.998Z,58.00
2018-01-10T09:40:30.577Z,58.70
2018-01-10T09:42:58.138Z,57.10
2018-01-10T09:45:25.709Z,56.00
2018-01-10T09:47:54.031Z,55.50
2018-01-10T09:50:21.589Z,55.50
2018-01-10T09:52:49.149Z,54.90
2018-01-10T09:55:16.693Z,54.60
2018-01-10T09:57:44.269Z,54.20
2018-01-10T10:00:11.826Z,53.30
2018-01-10T10:02:39.387Z,52.80
2018-01-10T10:05:06.949Z,52.50
2018-01-10T10:07:34.533Z,51.10
2018-01-10T10:10:02.105Z,50.90
2018-01-10T10:12:29.665Z,51.60
2018-01-10T10:14:57.230Z,49.30
2018-01-10T10:17:24.795Z,50.00
2018-01-10T10:19:53.128Z,50.30
2018-01-10T10:22:20.667Z,50.20
2018-01-10T10:24:48.260Z,50.30
2018-01-10T10:27:15.836Z,50.50
2018-01-10T10:29:43.431Z,50.00
2018-01-10T10:32:10.990Z,50.50
2018-01-10T10:34:38.535Z,50.90
2018-01-10T10:37:06.866Z,50.60
2018-01-10T10:39:34.421Z,50.60
2018-01-10T10:42:02.012Z,50.10
2018-01-10T10:44:29.563Z,50.00
2018-01-10T10:46:57.137Z,50.70
2018-01-10T10:49:24.691Z,51.30
2018-01-10T10:51:52.253Z,51.40
2018-01-10T10:54:19.815Z,51.20
2018-01-10T10:56:47.401Z,51.20
2018-01-10T10:59:14.971Z,51.10
2018-01-10T11:01:42.524Z,51.80
2018-01-10T11:04:10.081Z,51.80
2018-01-10T11:06:38.409Z,51.70
2018-01-10T11:09:05.989Z,51.70
2018-01-10T11:11:33.545Z,51.70
2018-01-10T11:14:01.108Z,51.10
2018-01-10T11:16:28.651Z,51.30
2018-01-10T11:18:56.224Z,51.40
2018-01-10T11:21:23.809Z,51.10
2018-01-10T11:23:52.124Z,51.10
2018-01-10T11:26:19.694Z,51.00
2018-01-10T11:28:47.245Z,50.20
2018-01-10T11:31:14.833Z,50.60
2018-01-10T11:33:42.419Z,50.90
2018-01-10T11:36:10.770Z,50.70
2018-01-10T11:38:38.318Z,50.70
2018-01-10T11:41:05.892Z,50.60
2018-01-10T11:43:33.441Z,50.50
2018-01-10T11:46:01.001Z,49.80
2018-01-10T11:48:28.598Z,49.00
2018-01-10T11:50:56.918Z,47.60
2018-01-10T11:53:24.492Z,47.50
2018-01-10T11:55:52.057Z,48.30
2018-01-10T11:58:19.633Z,47.90
2018-01-10T12:00:47.205Z,48.80
2018-01-10T12:03:15.535Z,49.10
2018-01-10T12:05:43.151Z,49.10
2018-01-10T12:08:11.551Z,47.80
2018-01-10T12:10:39.114Z,47.80
2018-01-10T12:13:06.701Z,48.20
2018-01-10T12:15:34.259Z,49.00
2018-01-10T12:18:01.813Z,49.00
2018-01-10T12:20:29.411Z,49.20
2018-01-10T12:22:56.973Z,50.30
2018-01-10T12:25:24.545Z,49.80
2018-01-10T12:27:52.891Z,50.10
2018-01-10T12:30:20.435Z,50.10
2018-01-10T12:32:48.020Z,51.20
2018-01-10T12:35:15.563Z,50.70
2018-01-10T12:37:43.151Z,50.10
2018-01-10T12:40:10.694Z,50.40
2018-01-10T12:42:38.281Z,50.80
2018-01-10T12:45:06.628Z,50.60
2018-01-10T12:47:34.184Z,50.60
2018-01-10T12:50:01.759Z,51.70
2018-01-10T12:52:29.303Z,51.60
2018-01-10T12:54:56.887Z,51.40
2018-01-10T12:57:24.453Z,50.70
2018-01-10T12:59:52.812Z,51.10
2018-01-10T13:02:20.390Z,51.00
2018-01-10T13:04:48.750Z,51.30
2018-01-10T13:07:16.312Z,51.30
2018-01-10T13:09:43.891Z,51.30
2018-01-10T13:12:12.270Z,51.50
2018-01-10T13:14:40.594Z,50.90
2018-01-10T13:17:08.159Z,50.90
2018-01-10T13:19:35.726Z,50.90
2018-01-10T13:22:03.298Z,51.10
2018-01-10T13:24:30.875Z,50.40
2018-01-10T13:26:58.456Z,50.80
2018-01-10T13:29:26.793Z,50.40
2018-01-10T13:31:54.371Z,50.40
2018-01-10T13:34:21.967Z,51.40
2018-01-10T13:36:49.556Z,50.80
2018-01-10T13:39:17.150Z,51.40
2018-01-10T13:41:44.722Z,51.40
2018-01-10T13:44:13.086Z,52.40
2018-01-10T13:46:40.639Z,52.40
2018-01-10T13:49:08.225Z,53.10
2018-01-10T13:51:36.553Z,51.90
2018-01-10T13:54:04.114Z,51.90
2018-01-10T13:56:31.681Z,52.70
2018-01-10T13:58:59.247Z,53.10
2018-01-10T14:01:26.812Z,53.30
2018-01-10T14:03:54.387Z,53.60
2018-01-10T14:06:21.974Z,54.20
2018-01-10T14:08:49.534Z,54.50
2018-01-10T14:11:17.129Z,54.00
2018-01-10T14:13:44.703Z,54.80
2018-01-10T14:16:12.262Z,54.60
2018-01-10T14:18:39.851Z,54.30
2018-01-10T14:21:07.410Z,55.20
2018-01-10T14:23:34.972Z,55.70
2018-01-10T14:26:03.301Z,55.80
2018-01-10T14:28:30.877Z,55.60
2018-01-10T14:30:58.452Z,56.30
2018-01-10T14:33:26.016Z,57.10
2018-01-10T14:35:54.870Z,57.10
2018-01-10T14:38:22.431Z,57.20
2018-01-10T14:40:49.993Z,57.50
2018-01-10T14:43:17.535Z,59.70
2018-01-10T14:45:45.093Z,60.10
2018-01-10T14:48:12.648Z,61.20
2018-01-10T14:50:40.214Z,61.90
2018-01-10T14:53:07.792Z,62.50
2018-01-10T14:55:35.387Z,63.30
2018-01-10T14:58:02.957Z,63.70
2018-01-10T15:00:31.301Z,64.70
2018-01-10T15:02:59.620Z,65.20
2018-01-10T15:05:27.941Z,65.30
2018-01-10T15:07:55.528Z,65.30
2018-01-10T15:10:23.112Z,65.90
2018-01-10T15:12:51.469Z,66.20
2018-01-10T15:15:19.026Z,66.20
2018-01-10T15:17:46.607Z,66.20
2018-01-10T15:20:14.937Z,67.10
2018-01-10T15:22:42.518Z,67.10
2018-01-10T15:25:10.260Z,67.10
2018-01-10T15:27:38.632Z,67.30
2018-01-10T15:30:06.226Z,67.30
2018-01-10T15:32:34.682Z,68.50
2018-01-10T15:35:02.376Z,69.00
2018-01-10T15:37:30.157Z,68.80
2018-01-10T15:39:57.775Z,69.60
2018-01-10T15:42:25.324Z,69.90
2018-01-10T15:44:52.886Z,70.20
2018-01-10T15:47:20.437Z,70.60
2018-01-10T15:49:48.028Z,71.20
2018-01-10T15:52:15.614Z,72.20
2018-01-10T15:54:43.930Z,72.20
2018-01-10T15:57:11.500Z,72.20
2018-01-10T15:59:39.070Z,71.70
2018-01-10T16:02:06.655Z,71.20
2018-01-10T16:04:34.221Z,71.10
2018-01-10T16:07:01.802Z,71.10
2018-01-10T16:09:30.124Z,72.10
2018-01-10T16:11:57.703Z,72.10
2018-01-10T16:14:25.281Z,72.60
2018-01-10T16:16:52.820Z,72.90
2018-01-10T16:19:20.398Z,73.20
2018-01-10T16:21:47.962Z,73.30
2018-01-10T16:24:15.519Z,73.80
2018-01-10T16:26:43.139Z,73.90
2018-01-10T16:29:10.708Z,73.90
2018-01-10T16:31:38.273Z,74.10
2018-01-10T16:34:05.852Z,74.90
2018-01-10T16:36:33.396Z,75.30
2018-01-10T16:39:00.967Z,74.70
2018-01-10T16:41:28.523Z,74.10
2018-01-10T16:43:56.086Z,74.70
2018-01-10T16:46:23.654Z,74.60
2018-01-10T16:48:51.211Z,73.80
2018-01-10T16:51:18.782Z,73.80
2018-01-10T16:53:47.099Z,75.00
2018-01-10T16:56:14.664Z,74.90
2018-01-10T16:58:42.216Z,75.80
2018-01-10T17:01:09.778Z,76.80
2018-01-10T17:03:37.343Z,76.70
2018-01-10T17:06:05.304Z,75.10
2018-01-10T17:08:33.378Z,74.70
2018-01-10T17:11:01.345Z,75.70
2018-01-10T17:13:28.943Z,75.20
2018-01-10T17:15:56.690Z,75.50
2018-01-10T17:18:24.774Z,75.70
2018-01-10T17:20:53.153Z,75.80
2018-01-10T17:23:21.039Z,75.70
2018-01-10T17:25:49.481Z,76.40
2018-01-10T17:28:17.316Z,76.00
2018-01-10T17:30:45.728Z,75.80
2018-01-10T17:33:13.368Z,75.80
2018-01-10T17:35:40.963Z,75.70
2018-01-10T17:38:08.531Z,76.80
2018-01-10T17:43:10.097Z,76.20
2018-01-10T17:45:38.147Z,75.40
2018-01-10T17:48:06.002Z,75.90
2018-01-10T17:50:33.577Z,76.00
2018-01-10T17:53:01.791Z,76.40
2018-01-10T17:55:29.423Z,76.60
2018-01-10T17:57:56.983Z,76.40
2018-01-10T18:00:24.550Z,76.50
2018-01-10T18:02:52.121Z,76.80
2018-01-10T18:05:19.663Z,77.20
2018-01-10T18:07:47.235Z,77.80
2018-01-10T18:10:14.785Z,77.80
2018-01-10T18:12:42.364Z,77.20
2018-01-10T18:15:09.926Z,77.80
2018-01-10T18:17:38.571Z,77.60
2018-01-10T18:20:07.091Z,77.50
2018-01-10T18:22:34.653Z,77.50
2018-01-10T18:25:02.206Z,78.30
2018-01-10T18:27:29.743Z,77.90
2018-01-10T18:29:57.318Z,77.80
2018-01-10T18:32:27.097Z,77.20
2018-01-10T18:34:54.672Z,77.30
2018-01-10T18:37:22.238Z,77.10
2018-01-10T18:39:49.788Z,77.30
2018-01-10T18:42:17.445Z,77.30
2018-01-10T18:44:44.982Z,78.00
2018-01-10T18:47:12.570Z,78.70
2018-01-10T18:49:40.126Z,77.60
2018-01-10T18:52:07.697Z,77.60
2018-01-10T18:54:35.257Z,77.80
2018-01-10T18:57:02.832Z,78.10
2018-01-10T18:59:30.390Z,77.50
2018-01-10T19:01:57.956Z,78.80
2018-01-10T19:04:25.538Z,77.80
2018-01-10T19:06:53.883Z,78.30
2018-01-10T19:09:21.443Z,78.30
2018-01-10T19:11:48.998Z,78.60
2018-01-10T19:14:16.578Z,78.70
2018-01-10T19:16:44.123Z,78.80
2018-01-10T19:19:11.704Z,78.70
2018-01-10T19:21:40.020Z,78.70
2018-01-10T19:24:07.596Z,78.70
2018-01-10T19:26:35.173Z,79.10
2018-01-10T19:29:02.719Z,78.80
2018-01-10T19:31:30.298Z,80.20
2018-01-10T19:33:57.839Z,79.80
2018-01-10T19:36:25.400Z,79.20
2018-01-10T19:38:52.946Z,77.80
2018-01-10T19:41:20.508Z,78.30
2018-01-10T19:43:48.080Z,79.20
2018-01-10T19:46:15.662Z,79.60
2018-01-10T19:48:43.222Z,79.70
2018-01-10T19:51:10.906Z,81.90
2018-01-10T19:53:39.435Z,80.30
2018-01-10T19:56:07.441Z,80.30
2018-01-10T19:58:35.031Z,79.40
2018-01-10T20:01:02.602Z,80.20
2018-01-10T20:03:30.192Z,79.00
2018-01-10T20:05:57.750Z,78.10
2018-01-10T20:08:25.350Z,78.20
2018-01-10T20:10:53.686Z,78.90
2018-01-10T20:13:21.236Z,78.80
2018-01-10T20:15:48.800Z,78.40
2018-01-10T20:18:16.354Z,79.20
2018-01-10T20:20:43.925Z,79.60
2018-01-10T20:23:11.494Z,79.40
2018-01-10T20:25:39.063Z,78.90
2018-01-10T20:28:06.618Z,78.50
2018-01-10T20:30:34.189Z,79.30
2018-01-10T20:33:02.875Z,79.50
2018-01-10T20:35:32.059Z,80.20
2018-01-10T20:37:59.648Z,80.50
2018-01-10T20:40:27.975Z,79.40
2018-01-10T20:42:55.548Z,79.30
2018-01-10T20:45:23.095Z,79.30
2018-01-10T20:47:50.669Z,79.70
2018-01-10T20:50:18.240Z,79.50
2018-01-10T20:52:45.827Z,80.00
2018-01-10T20:55:14.169Z,81.00
2018-01-10T20:57:41.748Z,81.00
2018-01-10T21:00:10.145Z,81.10
2018-01-10T21:02:37.751Z,80.10
2018-01-10T21:05:05.320Z,79.80
2018-01-10T21:07:32.878Z,80.30
2018-01-10T21:10:00.527Z,80.60
2018-01-10T21:12:28.076Z,80.80
2018-01-10T21:14:55.640Z,80.50
2018-01-10T21:17:23.179Z,81.20
2018-01-10T21:19:51.509Z,80.00
2018-01-10T21:22:19.074Z,80.10
2018-01-10T21:24:46.629Z,80.00
2018-01-10T21:27:14.188Z,80.50
2018-01-10T21:29:41.759Z,81.00
2018-01-10T21:32:09.334Z,81.20
2018-01-10T21:34:37.675Z,81.30
2018-01-10T21:37:05.231Z,81.30
2018-01-10T21:39:32.773Z,80.90
2018-01-10T21:42:00.345Z,80.90
2018-01-10T21:44:27.921Z,80.20
2018-01-10T21:46:55.463Z,80.30
2018-01-10T21:49:23.048Z,80.80
2018-01-10T21:51:50.595Z,81.10
2018-01-10T21:54:18.165Z,80.60
2018-01-10T21:56:45.715Z,82.30
2018-01-10T21:59:13.289Z,82.00
2018-01-10T22:01:40.836Z,81.90
2018-01-10T22:04:08.409Z,82.90
2018-01-10T22:06:35.980Z,83.00
2018-01-10T22:09:03.543Z,81.80
2018-01-10T22:11:31.881Z,82.30
2018-01-10T22:13:59.445Z,82.10
2018-01-10T22:16:27.024Z,81.80
2018-01-10T22:18:54.567Z,81.10
2018-01-10T22:21:22.129Z,81.20
2018-01-10T22:23:50.458Z,82.40
2018-01-10T22:26:18.023Z,82.30
2018-01-10T22:28:45.585Z,81.90
2018-01-10T22:31:13.163Z,81.30
2018-01-10T22:33:40.711Z,81.20
2018-01-10T22:36:08.417Z,81.70
2018-01-10T22:38:35.999Z,82.40
2018-01-10T22:41:04.312Z,81.40
2018-01-10T22:43:31.876Z,81.40
2018-01-10T22:45:59.429Z,81.90
2018-01-10T22:48:27.008Z,81.30
2018-01-10T22:50:54.570Z,81.30
2018-01-10T22:53:22.142Z,81.60
2018-01-10T22:55:49.692Z,81.30
2018-01-10T22:58:17.254Z,80.30
2018-01-10T23:00:44.824Z,80.90
2018-01-10T23:03:13.163Z,81.60
2018-01-10T23:05:40.749Z,81.90
2018-01-10T23:08:08.319Z,81.10
2018-01-10T23:10:35.897Z,81.70
2018-01-10T23:13:03.457Z,81.90
2018-01-10T23:15:31.031Z,81.40
2018-01-10T23:17:58.589Z,80.90
2018-01-10T23:20:26.135Z,81.60
2018-01-10T23:22:53.724Z,82.00
2018-01-10T23:25:22.063Z,81.20
2018-01-10T23:27:49.650Z,81.20
2018-01-10T23:30:17.977Z,81.00
2018-01-10T23:32:45.558Z,80.90
2018-01-10T23:35:13.116Z,81.30
2018-01-10T23:37:42.111Z,81.50
2018-01-10T23:40:09.688Z,82.00
2018-01-10T23:42:37.239Z,81.50
2018-01-10T23:45:04.824Z,80.60
2018-01-10T23:47:33.148Z,82.30
2018-01-10T23:50:00.741Z,82.20
2018-01-10T23:52:28.290Z,81.60
2018-01-10T23:54:56.030Z,80.70
2018-01-10T23:57:23.576Z,81.60
2018-01-10T23:59:51.153Z,81.40
